Time;durP1;ratioP1;P1;durP2;ratioP2;P2;SDS_P1;SDS_P2;PMS_P1;PMS_P2;Temp;Humidity;BMP_temperature;BMP_pressure;BME280_temperature;BME280_humidity;BME280_pressure;Samples;Min_cycle;Max_cycle;Signal;HPM_P1;HPM_P2
2022/06/06 00:09:42;;;;;;;10.10;9.10;;;;;;;15.64;58.94;98693.46;434170;1267;112410;-40
2022/06/06 00:19:50;;;;;;;17.10;10.80;;;;;;;15.65;59.17;98700.56;433952;1268;108851;-41
2022/06/06 00:29:57;;;;;;;10.10;9.00;;;;;;;15.29;59.24;98694.92;434092;1266;98879;-41
2022/06/06 00:40:09;;;;;;;10.70;9.60;;;;;;;14.88;59.81;98686.79;434120;1268;108809;-40
2022/06/06 00:50:20;;;;;;;12.40;10.60;;;;;;;14.60;60.55;98682.55;434114;1268;99276;-41
2022/06/06 01:00:27;;;;;;;13.90;11.30;;;;;;;14.11;60.96;98679.77;434045;1267;112395;-44
2022/06/06 01:10:34;;;;;;;14.60;9.80;;;;;;;13.63;61.60;98665.65;434143;1266;108861;-41
2022/06/06 01:20:55;;;;;;;11.60;10.30;;;;;;;13.54;62.41;98663.96;434727;1257;99133;-40
2022/06/06 01:31:07;;;;;;;14.90;10.50;;;;;;;13.40;62.93;98659.22;434034;1267;108802;-43
2022/06/06 01:41:18;;;;;;;16.90;12.90;;;;;;;13.32;63.69;98660.19;434280;1267;98821;-42
2022/06/06 01:51:28;;;;;;;17.50;14.80;;;;;;;12.93;63.88;98657.24;434301;1268;111569;-41
2022/06/06 02:01:35;;;;;;;13.50;10.90;;;;;;;12.67;64.42;98658.39;434203;1267;108881;-44
2022/06/06 02:11:42;;;;;;;16.30;13.00;;;;;;;12.52;64.82;98651.86;434118;1266;99268;-41
2022/06/06 02:21:50;;;;;;;15.60;13.00;;;;;;;12.37;65.25;98633.42;434045;1267;109149;-40
2022/06/06 02:31:57;;;;;;;16.40;14.00;;;;;;;12.56;65.78;98626.19;434022;1268;99267;-43
2022/06/06 02:42:05;;;;;;;19.20;15.60;;;;;;;12.48;65.90;98612.32;434096;1267;112203;-41
2022/06/06 02:52:12;;;;;;;16.30;13.10;;;;;;;12.32;66.02;98611.27;434262;1268;108799;-40
2022/06/06 03:02:19;;;;;;;14.10;11.50;;;;;;;12.32;66.28;98620.52;434112;1268;99287;-41
2022/06/06 03:22:35;;;;;;;17.80;14.00;;;;;;;13.58;67.12;98631.08;434245;1268;99369;-43
2022/06/06 03:32:50;;;;;;;15.20;12.30;;;;;;;14.50;66.47;98643.28;434067;1268;112437;-41
2022/06/06 03:42:55;;;;;;;14.60;12.90;;;;;;;14.75;66.26;98642.35;434248;1267;107515;-41
2022/06/06 03:53:01;;;;;;;13.20;11.80;;;;;;;15.11;65.92;98640.91;434417;1266;99255;-41
2022/06/06 04:03:11;;;;;;;14.60;11.60;;;;;;;15.79;65.89;98637.55;434202;1267;108861;-44
2022/06/06 04:13:20;;;;;;;14.00;10.20;;;;;;;17.51;64.87;98634.49;434405;1267;99980;-43
2022/06/06 04:23:39;;;;;;;10.00;9.00;;;;;;;19.77;63.18;98618.70;434135;1267;112983;-43
2022/06/06 04:33:51;;;;;;;10.80;8.90;;;;;;;21.44;60.60;98613.55;433941;1267;108799;-46
2022/06/06 04:44:01;;;;;;;9.50;8.50;;;;;;;22.26;57.77;98610.20;434063;1266;99283;-43
2022/06/06 04:54:10;;;;;;;10.60;9.10;;;;;;;22.34;56.00;98616.39;434174;1266;108522;-44
2022/06/06 05:04:18;;;;;;;10.00;8.90;;;;;;;22.06;54.67;98613.77;434167;1267;99346;-42
2022/06/06 05:14:27;;;;;;;;;;;;;;;21.56;54.50;98616.92;434204;1267;112441;-40
2022/06/06 05:24:52;;;;;;;11.10;8.50;;;;;;;21.55;54.33;98620.49;434052;1267;108814;-41
2022/06/06 05:35:03;;;;;;;10.20;8.30;;;;;;;21.68;54.10;98620.30;434059;1267;99250;-43
2022/06/06 05:45:15;;;;;;;9.00;8.30;;;;;;;21.16;53.79;98632.11;434289;1267;107777;-44
2022/06/06 05:55:30;;;;;;;15.40;9.90;;;;;;;20.29;54.76;98639.68;434006;1267;98821;-41
2022/06/06 06:05:38;;;;;;;12.50;10.20;;;;;;;20.00;55.43;98647.89;434163;1267;111624;-43
2022/06/06 06:15:46;;;;;;;11.90;8.70;;;;;;;19.97;56.15;98651.77;434051;1267;108844;-42
2022/06/06 06:25:55;;;;;;;9.70;8.90;;;;;;;20.51;56.06;98660.29;434339;1267;99263;-42
2022/06/06 06:36:00;;;;;;;11.00;9.90;;;;;;;20.75;55.36;98673.49;434239;1266;108759;-43
2022/06/06 06:46:13;;;;;;;11.70;9.10;;;;;;;21.48;55.38;98665.55;434243;1267;98853;-42
2022/06/06 07:17:12;;;;;;;9.90;8.30;;;;;;;23.37;53.09;98650.02;434154;1267;97992;-41
2022/06/06 07:27:20;;;;;;;10.50;9.10;;;;;;;24.22;52.29;98646.33;434048;1268;108176;-41
2022/06/06 07:37:47;;;;;;;14.20;9.60;;;;;;;24.65;52.41;98646.27;434044;1266;99251;-42
2022/06/06 07:47:57;;;;;;;13.20;8.40;;;;;;;25.37;52.11;98650.41;434421;1267;112506;-42
2022/06/06 07:58:02;;;;;;;8.50;7.30;;;;;;;26.21;51.63;98650.86;434062;1267;108493;-45
2022/06/06 08:08:12;;;;;;;7.00;6.20;;;;;;;26.63;49.41;98639.91;434139;1267;99346;-46
2022/06/06 08:28:40;;;;;;;6.60;5.80;;;;;;;26.79;48.60;98635.50;434098;1266;108795;-43
2022/06/06 08:38:46;;;;;;;7.50;6.60;;;;;;;26.65;46.98;98630.85;433750;1267;99371;-44
2022/06/06 08:49:08;;;;;;;8.00;7.20;;;;;;;26.35;46.28;98638.30;434113;1267;109167;-42
2022/06/06 08:59:33;;;;;;;9.70;7.40;;;;;;;26.84;46.77;98637.94;434026;1266;99529;-42
2022/06/06 09:10:16;;;;;;;11.40;7.90;;;;;;;27.20;46.39;98644.08;434201;1267;112409;-42
2022/06/06 09:20:53;;;;;;;9.10;8.30;;;;;;;27.43;45.40;98642.60;433943;1267;108885;-43
2022/06/06 09:31:29;;;;;;;10.10;8.40;;;;;;;27.01;44.54;98636.56;433825;1266;382381;-43
2022/06/06 09:52:13;;;;;;;12.20;9.60;;;;;;;27.24;44.44;98621.83;434359;1267;98880;-41
2022/06/06 10:02:53;;;;;;;10.90;8.60;;;;;;;27.68;45.05;98619.85;434150;1267;113270;-41
2022/06/06 10:13:03;;;;;;;10.00;8.30;;;;;;;28.18;44.53;98627.73;434291;1266;108489;-42
2022/06/06 10:23:13;;;;;;;9.60;8.60;;;;;;;27.52;44.17;98628.81;434115;1267;99243;-43
2022/06/06 10:33:42;;;;;;;9.30;8.30;;;;;;;27.06;44.76;98621.54;433642;1268;108486;-42
2022/06/06 10:44:20;;;;;;;9.80;8.90;;;;;;;26.95;44.92;98612.46;433816;1267;98831;-42
2022/06/06 10:55:05;;;;;;;17.30;11.10;;;;;;;27.12;44.30;98606.76;433855;1267;112384;-42
2022/06/06 11:05:43;;;;;;;8.20;7.30;;;;;;;26.86;44.85;98601.78;433977;1267;108898;-40
2022/06/06 11:15:53;;;;;;;10.50;8.60;;;;;;;27.26;45.01;98600.70;434032;1267;99245;-43
2022/06/06 11:26:23;;;;;;;12.60;9.40;;;;;;;27.53;44.68;98596.81;434062;1268;108852;-41
2022/06/06 11:37:06;;;;;;;13.30;9.50;;;;;;;27.70;44.48;98593.86;434360;1267;99469;-43
2022/06/06 11:47:44;;;;;;;13.10;11.80;;;;;;;27.26;44.05;98593.86;434057;1267;112396;-41
2022/06/06 11:57:59;;;;;;;10.70;9.90;;;;;;;27.29;44.10;98585.83;434111;1267;107209;-42
2022/06/06 12:08:43;;;;;;;11.10;9.50;;;;;;;27.35;44.82;98579.88;434139;1268;99276;-43
2022/06/06 12:18:59;;;;;;;11.60;10.50;;;;;;;27.49;43.94;98565.10;434289;1267;109069;-40
2022/06/06 12:29:18;;;;;;;15.10;12.00;;;;;;;27.56;43.70;98562.54;434083;1267;99241;-43
2022/06/06 12:39:26;;;;;;;11.60;10.10;;;;;;;27.64;43.44;98551.45;434103;1267;111339;-45
2022/06/06 12:49:44;;;;;;;11.10;10.20;;;;;;;28.18;43.74;98541.61;434168;1267;108858;-41
2022/06/06 12:59:55;;;;;;;13.00;10.80;;;;;;;27.94;43.13;98535.45;434177;1267;99241;-42
2022/06/06 13:10:06;;;;;;;11.00;9.80;;;;;;;27.32;43.34;98532.38;434027;1267;107784;-41
2022/06/06 13:20:20;;;;;;;12.30;11.10;;;;;;;27.23;43.75;98529.54;434190;1267;99250;-43
2022/06/06 13:30:27;;;;;;;12.40;10.30;;;;;;;27.67;43.90;98527.70;434007;1267;111329;-41
2022/06/06 13:41:00;;;;;;;12.60;11.50;;;;;;;27.24;43.38;98520.36;434027;1267;108813;-43
2022/06/06 13:51:08;;;;;;;11.40;10.30;;;;;;;27.36;43.40;98523.21;434193;1267;98397;-42
2022/06/06 14:01:16;;;;;;;6.60;5.80;;;;;;;27.41;43.50;98520.63;434039;1267;107749;-41
2022/06/06 14:12:02;;;;;;;5.80;5.40;;;;;;;27.55;44.57;98515.23;434124;1267;99239;-43
2022/06/06 14:22:09;;;;;;;11.80;6.80;;;;;;;27.54;44.81;98517.39;434088;1267;112634;-42
2022/06/06 14:32:25;;;;;;;8.20;6.50;;;;;;;27.04;45.32;98524.30;434042;1267;108933;-42
2022/06/06 14:42:33;;;;;;;4.70;2.30;;;;;;;26.12;46.22;98532.92;434181;1268;97962;-42
2022/06/06 14:52:40;;;;;;;8.70;2.30;;;;;;;25.65;47.63;98529.01;434043;1265;107770;-42
2022/06/06 15:03:01;;;;;;;4.90;2.00;;;;;;;25.75;48.24;98517.84;434080;1266;99275;-41
2022/06/06 15:13:07;;;;;;;3.00;2.80;;;;;;;26.05;48.73;98509.92;434071;1267;112346;-42
2022/06/06 15:23:21;;;;;;;7.40;3.10;;;;;;;26.15;48.73;98505.10;434088;1267;108848;-42
2022/06/06 15:33:30;;;;;;;10.80;3.30;;;;;;;25.97;49.02;98509.59;434161;1267;99284;-41
2022/06/06 15:43:37;;;;;;;6.80;3.80;;;;;;;25.94;49.08;98507.91;434207;1267;107766;-41
2022/06/06 16:04:27;;;;;;;3.90;3.50;;;;;;;25.74;48.29;98508.89;434347;1267;112575;-41
2022/06/06 16:24:59;;;;;;;8.70;6.00;;;;;;;25.04;48.43;98518.95;434333;1267;99284;-41
2022/06/06 16:55:58;;;;;;;3.10;2.00;;;;;;;24.61;49.27;98518.95;434196;1268;112451;-43
2022/06/06 17:16:43;;;;;;;3.10;2.30;;;;;;;23.81;50.78;98531.41;434122;1268;99241;-40
2022/06/06 17:26:55;;;;;;;13.10;2.60;;;;;;;23.47;51.62;98531.38;434049;1268;107737;-41
2022/06/06 17:37:08;;;;;;;10.30;8.20;;;;;;;23.23;52.49;98535.30;434036;1267;99239;-40
2022/06/06 17:57:22;;;;;;;13.50;10.50;;;;;;;22.20;54.88;98543.23;433990;1268;108526;-41
2022/06/06 18:07:54;;;;;;;9.70;8.50;;;;;;;21.91;55.93;98545.08;433362;1270;99157;-44
2022/06/06 18:18:07;;;;;;;10.60;9.20;;;;;;;21.55;57.30;98541.06;433886;1268;108689;-42
2022/06/06 18:28:15;;;;;;;10.30;9.40;;;;;;;21.25;58.28;98537.29;433922;1268;99800;-44
2022/06/06 18:38:25;;;;;;;32.60;11.10;;;;;;;21.10;58.94;98529.52;433996;1267;112006;-43
2022/06/06 18:48:32;;;;;;;12.80;9.50;;;;;;;20.99;59.51;98529.54;434065;1267;108834;-43
2022/06/06 19:18:59;;;;;;;16.70;13.00;;;;;;;20.52;61.46;98539.75;433970;1267;99275;-44
2022/06/06 19:29:05;;;;;;;14.30;12.30;;;;;;;20.34;62.23;98550.49;434001;1268;112533;-43
2022/06/06 19:39:17;;;;;;;12.60;11.20;;;;;;;20.32;62.73;98554.59;433101;1269;108987;-43
2022/06/06 19:59:37;;;;;;;15.80;12.10;;;;;;;20.30;63.70;98556.78;434066;1268;108777;-43
2022/06/06 20:09:53;;;;;;;15.20;11.50;;;;;;;20.19;63.78;98549.67;433975;1268;99369;-43
2022/06/06 20:30:31;;;;;;;13.00;10.60;;;;;;;19.62;64.68;98540.09;433735;1267;108906;-44
2022/06/06 20:40:37;;;;;;;11.50;10.40;;;;;;;19.55;65.28;98538.20;433875;1268;99264;-43
2022/06/06 21:00:52;;;;;;;15.30;13.70;;;;;;;19.19;65.69;98525.60;434167;1268;99251;-41
2022/06/06 21:11:00;;;;;;;23.90;15.10;;;;;;;18.67;66.03;98517.85;433901;1268;112380;-42
2022/06/06 21:21:11;;;;;;;19.10;13.70;;;;;;;18.45;66.57;98524.21;433774;1268;108754;-41
2022/06/06 21:31:19;;;;;;;18.90;14.00;;;;;;;18.27;67.10;98520.23;433467;1268;649597;-42
2022/06/06 21:41:25;;;;;;;19.10;15.10;;;;;;;18.23;68.01;98529.09;433913;1268;106952;-41
2022/06/06 22:01:49;;;;;;;17.80;15.90;;;;;;;18.39;68.42;98531.94;434153;1268;112235;-43
2022/06/06 22:11:58;;;;;;;18.50;15.70;;;;;;;18.22;68.61;98541.20;433472;1268;108818;-41
2022/06/06 22:22:06;;;;;;;17.30;15.30;;;;;;;18.13;68.97;98537.52;434186;1268;99250;-43
2022/06/06 22:32:13;;;;;;;16.30;14.20;;;;;;;18.11;69.46;98532.14;433888;1268;108942;-41
2022/06/06 22:42:21;;;;;;;15.80;14.10;;;;;;;18.09;69.44;98531.58;433503;1268;99283;-40
2022/06/06 23:02:35;;;;;;;19.50;15.20;;;;;;;17.84;69.73;98536.36;434095;1268;108849;-42
2022/06/06 23:12:43;;;;;;;19.10;15.80;;;;;;;17.51;69.76;98530.15;433909;1267;99974;-42
2022/06/06 23:22:50;;;;;;;21.20;17.20;;;;;;;17.36;70.21;98531.46;434036;1268;108767;-45
2022/06/06 23:32:58;;;;;;;18.70;16.20;;;;;;;17.27;70.55;98525.25;433993;1268;97962;-41
2022/06/06 23:43:07;;;;;;;19.30;16.70;;;;;;;17.18;70.77;98522.41;433967;1267;112410;-41
